Pagrindinis puslapis
METAR-TAF:

METAR-TAF

Oro uostai :

Trevico, Italija

platuma: 41-03N, ilguma: 015-14E, Aukštis: 1085 m

Dabartinis oras

Ataskaita buvo paskelbta 1 valandą ir 1 minutes, ne 21:55 UTC
Vėjas 19 kt iš Vakarų
Temperatūra 6°C
Drėgmė 87%
Slėgis 1005 hPa
Matomumas 10 km arba daugiau
Išsisklaidę debesys ne aukštis 1400 ft

METAR: LIRT 042155Z 27019KT 9999 SCT014 06/04 Q1005 RMK SCT MON INVIS VAL INVIS VIS MIN 9999

Laikas: 23:56 (22:56 UTC)


TAF: trūkstamas

Orai ataskaitas ir orų prognozės (METAR, TAF).

turimą stotys yra geltonos ir raudonos taškus žemėlapyje.

Perkelti pele per norėdami pamatyti stoties vardą.

Tada spustelėkite, norėdami matyti oro stebėjimo ir prognozės.

Norėdami pakeisti žemėlapį: spustelėkite ant žalios mygtukų su juodo kryžiaus žemyn,; žalią mygtuką su brūkšneliu, jei norite nutolinti; arba žalių rodyklių gretimoms žemėlapius.


METAR-TAF: